Time;durP1;ratioP1;P1;durP2;ratioP2;P2;SDS_P1;SDS_P2;PMS_P1;PMS_P2;Temp;Humidity;BMP_temperature;BMP_pressure;BME280_temperature;BME280_humidity;BME280_pressure;Samples;Min_cycle;Max_cycle;Signal;HPM_P1;HPM_P2
2021/12/17 00:02:55;;;;;;;0.95;0.93;;;8.00;99.90;;;;;;5052383;28;20047;-84
2021/12/17 00:05:01;;;;;;;0.80;0.80;;;8.00;99.90;;;;;;5062753;28;20063;-85
2021/12/17 00:07:29;;;;;;;0.90;0.90;;;8.00;99.90;;;;;;5062621;28;20044;-84
2021/12/17 00:09:57;;;;;;;0.63;0.63;;;8.00;99.90;;;;;;5065612;28;20056;-84
2021/12/17 00:12:25;;;;;;;0.85;0.68;;;8.00;99.90;;;;;;5049549;28;20144;-84
2021/12/17 00:14:52;;;;;;;0.88;0.88;;;8.00;99.90;;;;;;5058119;28;20036;-84
2021/12/17 00:17:25;;;;;;;0.70;0.70;;;8.00;99.90;;;;;;5047940;28;20051;-84
2021/12/17 00:20:17;;;;;;;0.90;0.90;;;8.00;99.90;;;;;;5042759;28;20100;-84
2021/12/17 00:50:17;;;;;;;1.15;0.70;;;8.00;99.90;;;;;;5065462;28;20052;-85
2021/12/17 00:52:36;;;;;;;2.40;1.40;;;8.00;99.90;;;;;;5061724;28;20527;-85
2021/12/17 00:55:04;;;;;;;0.60;0.60;;;8.00;99.90;;;;;;5052719;28;20180;-85
2021/12/17 00:57:36;;;;;;;0.98;0.90;;;8.00;99.90;;;;;;5050029;28;20041;-85
2021/12/17 01:00:06;;;;;;;0.65;0.65;;;7.90;99.90;;;;;;5048261;28;20108;-85
2021/12/17 01:02:33;;;;;;;1.00;1.00;;;7.90;99.90;;;;;;5067869;28;20048;-85
2021/12/17 01:05:03;;;;;;;1.08;0.90;;;7.90;99.90;;;;;;5066416;28;20072;-86
2021/12/17 01:07:32;;;;;;;0.60;0.60;;;7.90;99.90;;;;;;5051805;28;20090;-85
2021/12/17 01:09:57;;;;;;;1.55;1.45;;;7.90;99.90;;;;;;5064926;28;20536;-85
2021/12/17 01:12:24;;;;;;;0.57;0.57;;;7.90;99.90;;;;;;5066659;28;20150;-85
2021/12/17 01:14:50;;;;;;;0.70;0.70;;;7.90;99.90;;;;;;5085337;28;20056;-85
2021/12/17 01:17:19;;;;;;;0.43;0.43;;;7.90;99.90;;;;;;5066914;28;20090;-86
2021/12/17 01:22:43;;;;;;;0.70;0.70;;;7.90;99.90;;;;;;5065800;28;20044;-85
2021/12/17 01:25:08;;;;;;;0.77;0.77;;;7.90;99.90;;;;;;5067139;28;20097;-84
2021/12/17 01:35:47;;;;;;;0.65;0.65;;;7.90;99.90;;;;;;5067068;28;20056;-84
2021/12/17 01:43:55;;;;;;;0.60;0.60;;;7.90;99.90;;;;;;5064295;28;20052;-84
2021/12/17 01:46:27;;;;;;;0.75;0.75;;;7.90;99.90;;;;;;5063578;28;20048;-86
2021/12/17 01:59:18;;;;;;;0.70;0.70;;;7.80;99.90;;;;;;5067941;28;20041;-85
2021/12/17 01:59:46;;;;;;;0.60;0.60;;;7.90;99.90;;;;;;5061484;28;20071;-85
2021/12/17 02:02:11;;;;;;;2.00;1.02;;;7.80;99.90;;;;;;5065839;28;20051;-86
2021/12/17 02:04:37;;;;;;;0.60;0.60;;;7.80;99.90;;;;;;5062155;28;20041;-85
2021/12/17 02:07:05;;;;;;;0.50;0.50;;;7.90;99.90;;;;;;5061929;28;20044;-85
2021/12/17 02:29:10;;;;;;;0.60;0.60;;;7.80;99.90;;;;;;5069188;28;20063;-85
2021/12/17 02:31:36;;;;;;;0.70;0.70;;;7.80;99.90;;;;;;5045984;28;20032;-86
2021/12/17 02:34:15;;;;;;;0.80;0.80;;;7.80;99.90;;;;;;5062916;28;20040;-85
2021/12/17 02:36:44;;;;;;;1.83;0.95;;;7.80;99.90;;;;;;5049502;28;20036;-85
2021/12/17 02:47:10;;;;;;;;;;;7.70;99.90;;;;;;5058907;28;20094;-85
2021/12/17 02:49:40;;;;;;;0.60;0.60;;;7.70;99.90;;;;;;5062793;28;20035;-85
2021/12/17 02:52:07;;;;;;;2.10;1.08;;;7.70;99.90;;;;;;5044428;28;20035;-86
2021/12/17 02:54:35;;;;;;;1.35;1.25;;;7.70;99.90;;;;;;5056717;28;20084;-86
2021/12/17 02:57:02;;;;;;;1.10;1.00;;;7.70;99.90;;;;;;5060835;28;20028;-85
2021/12/17 02:59:28;;;;;;;0.60;0.60;;;7.70;99.90;;;;;;5036293;28;20040;-85
2021/12/17 03:01:56;;;;;;;1.50;1.40;;;7.70;99.90;;;;;;5042637;28;20044;-85
2021/12/17 03:04:22;;;;;;;0.85;0.85;;;7.70;99.90;;;;;;5060668;28;20033;-85
2021/12/17 03:06:48;;;;;;;0.73;0.73;;;7.70;99.90;;;;;;5076335;28;20048;-86
2021/12/17 03:09:15;;;;;;;0.68;0.68;;;7.70;99.90;;;;;;5034760;28;20044;-86
2021/12/17 03:11:41;;;;;;;0.85;0.85;;;7.70;99.90;;;;;;5043625;28;20043;-85
2021/12/17 03:14:07;;;;;;;0.63;0.60;;;7.70;99.90;;;;;;5060502;28;20068;-86
2021/12/17 03:16:53;;;;;;;0.60;0.60;;;7.70;99.90;;;;;;5078463;28;20083;-86
2021/12/17 03:23:25;;;;;;;0.60;0.60;;;7.70;99.90;;;;;;5044463;28;20044;-86
2021/12/17 03:24:49;;;;;;;0.70;0.70;;;7.70;99.90;;;;;;5064834;28;20052;-85
2021/12/17 03:27:14;;;;;;;0.60;0.60;;;7.70;99.90;;;;;;5044980;28;20115;-86
2021/12/17 03:29:40;;;;;;;0.70;0.70;;;7.60;99.90;;;;;;5068031;28;20055;-86
2021/12/17 03:32:06;;;;;;;0.70;0.70;;;7.60;99.90;;;;;;5048932;28;20045;-86
2021/12/17 03:34:31;;;;;;;0.60;0.60;;;7.60;99.90;;;;;;5048918;28;20100;-85
2021/12/17 03:36:57;;;;;;;0.60;0.60;;;7.60;99.90;;;;;;5053289;28;20089;-84
2021/12/17 03:39:27;;;;;;;0.50;0.50;;;7.60;99.90;;;;;;5048696;28;20040;-84
2021/12/17 03:41:55;;;;;;;0.70;0.70;;;7.60;99.90;;;;;;5082521;28;20055;-85
2021/12/17 03:44:21;;;;;;;0.70;0.70;;;7.60;99.90;;;;;;5068109;28;20036;-86
2021/12/17 03:46:48;;;;;;;0.73;0.73;;;7.60;99.90;;;;;;5066757;28;20068;-86
2021/12/17 03:49:18;;;;;;;0.60;0.60;;;7.60;99.90;;;;;;5047612;28;20066;-85
2021/12/17 03:51:51;;;;;;;0.50;0.50;;;7.60;99.90;;;;;;5073931;28;20468;-85
2021/12/17 03:54:17;;;;;;;0.60;0.60;;;7.60;99.90;;;;;;5067018;28;20059;-85
2021/12/17 03:56:43;;;;;;;0.60;0.60;;;7.60;99.90;;;;;;5059785;28;20083;-85
2021/12/17 03:59:10;;;;;;;0.60;0.60;;;7.60;99.90;;;;;;5049886;28;20433;-85
2021/12/17 04:01:40;;;;;;;0.60;0.60;;;7.60;99.90;;;;;;5063668;28;20075;-85
2021/12/17 04:04:06;;;;;;;0.50;0.50;;;7.60;99.90;;;;;;5057003;28;20065;-85
2021/12/17 04:06:32;;;;;;;0.73;0.73;;;7.60;99.90;;;;;;5068491;28;21846;-85
2021/12/17 04:08:58;;;;;;;0.60;0.60;;;7.60;99.90;;;;;;5068852;28;20104;-85
2021/12/17 04:11:24;;;;;;;1.00;0.95;;;7.60;99.90;;;;;;5068538;28;20071;-85
2021/12/17 04:13:55;;;;;;;0.68;0.68;;;7.60;99.90;;;;;;5065553;28;20078;-84
2021/12/17 04:16:25;;;;;;;0.60;0.60;;;7.60;99.90;;;;;;5044481;28;20075;-85
2021/12/17 04:18:51;;;;;;;0.75;0.75;;;7.60;99.90;;;;;;5048023;28;20062;-84
2021/12/17 04:21:18;;;;;;;0.50;0.50;;;7.60;99.90;;;;;;5042414;28;20055;-85
2021/12/17 04:23:45;;;;;;;0.60;0.60;;;7.60;99.90;;;;;;5065469;28;20044;-85
2021/12/17 04:26:12;;;;;;;0.70;0.70;;;7.60;99.90;;;;;;5048301;28;20063;-85
2021/12/17 04:28:47;;;;;;;0.57;0.57;;;7.60;99.90;;;;;;5064187;28;20071;-85
2021/12/17 04:31:14;;;;;;;0.50;0.50;;;7.60;99.90;;;;;;5063704;28;20045;-85
2021/12/17 04:33:42;;;;;;;0.60;0.60;;;7.60;99.90;;;;;;5064349;28;20076;-85
2021/12/17 04:36:09;;;;;;;0.70;0.70;;;7.60;99.90;;;;;;5045342;28;20040;-85
2021/12/17 04:38:34;;;;;;;1.65;0.82;;;7.60;99.90;;;;;;5046509;28;20097;-85
2021/12/17 04:41:29;;;;;;;0.80;0.80;;;7.60;99.90;;;;;;5060947;28;20129;-85
2021/12/17 04:44:02;;;;;;;0.75;0.75;;;7.60;99.90;;;;;;5064233;28;20112;-85
2021/12/17 04:46:38;;;;;;;0.60;0.60;;;7.60;99.90;;;;;;5047303;28;20049;-85
2021/12/17 04:57:31;;;;;;;0.60;0.60;;;7.60;99.90;;;;;;5057677;28;20062;-85
2021/12/17 05:00:07;;;;;;;0.70;0.70;;;7.60;99.90;;;;;;5048560;28;20207;-85
2021/12/17 05:02:38;;;;;;;0.60;0.60;;;7.50;99.90;;;;;;5046793;28;20044;-85
2021/12/17 05:05:07;;;;;;;0.60;0.60;;;7.50;99.90;;;;;;5047446;28;20507;-85
2021/12/17 05:07:35;;;;;;;0.60;0.60;;;7.50;99.90;;;;;;5046870;28;20044;-85
2021/12/17 05:10:15;;;;;;;0.70;0.70;;;7.50;99.90;;;;;;5064088;28;20067;-84
2021/12/17 05:20:50;;;;;;;1.17;1.17;;;7.50;99.90;;;;;;5060448;28;20083;-85
2021/12/17 05:23:24;;;;;;;0.60;0.60;;;7.50;99.90;;;;;;5047414;28;20040;-85
2021/12/17 05:25:53;;;;;;;0.60;0.60;;;7.50;99.90;;;;;;5081301;28;20508;-85
2021/12/17 05:28:19;;;;;;;0.70;0.70;;;7.50;99.90;;;;;;5064270;28;20054;-85
2021/12/17 05:30:46;;;;;;;0.90;0.90;;;7.50;99.90;;;;;;5063839;28;20119;-84
2021/12/17 05:33:13;;;;;;;0.82;0.82;;;7.40;99.90;;;;;;5063167;28;20111;-85
2021/12/17 05:35:39;;;;;;;0.68;0.68;;;7.50;99.90;;;;;;5046952;28;20037;-85
2021/12/17 05:38:04;;;;;;;0.52;0.52;;;7.40;99.90;;;;;;5063916;28;20105;-85
2021/12/17 05:40:30;;;;;;;0.50;0.50;;;7.40;99.90;;;;;;5063438;28;20079;-85
2021/12/17 05:42:59;;;;;;;2.30;0.70;;;7.40;99.90;;;;;;5061493;28;20040;-85
2021/12/17 05:48:10;;;;;;;;;;;7.40;99.90;;;;;;5061888;28;20109;-85
2021/12/17 05:50:39;;;;;;;0.65;0.65;;;7.40;99.90;;;;;;5044926;28;19920;-85
2021/12/17 05:53:06;;;;;;;0.70;0.70;;;7.40;99.90;;;;;;5045488;28;20040;-84
2021/12/17 05:55:32;;;;;;;0.93;0.90;;;7.40;99.90;;;;;;5050689;28;20048;-85
2021/12/17 05:57:58;;;;;;;7.22;1.00;;;7.40;99.90;;;;;;5062396;28;20051;-85
2021/12/17 06:00:24;;;;;;;0.70;0.70;;;7.40;99.90;;;;;;5060689;28;20432;-85
2021/12/17 06:02:51;;;;;;;0.80;0.80;;;7.40;99.90;;;;;;5078374;28;20096;-85
2021/12/17 06:05:17;;;;;;;0.50;0.50;;;7.40;99.90;;;;;;5070142;28;20511;-84
2021/12/17 06:07:44;;;;;;;0.60;0.60;;;7.40;99.90;;;;;;5067048;28;20040;-85
2021/12/17 06:10:10;;;;;;;1.55;1.45;;;7.40;99.90;;;;;;5060397;28;20052;-85
2021/12/17 06:12:37;;;;;;;0.73;0.73;;;7.40;99.90;;;;;;5057316;28;20040;-85
2021/12/17 06:15:08;;;;;;;0.60;0.60;;;7.30;99.90;;;;;;5066934;28;20079;-84
2021/12/17 06:17:34;;;;;;;0.70;0.70;;;7.30;99.90;;;;;;5050254;28;20112;-85
2021/12/17 06:20:00;;;;;;;0.60;0.60;;;7.40;99.90;;;;;;5061190;28;20073;-85
2021/12/17 06:22:25;;;;;;;1.50;1.40;;;7.40;99.90;;;;;;5042652;28;20436;-85
2021/12/17 06:24:52;;;;;;;1.00;1.00;;;7.30;99.90;;;;;;5051966;28;20040;-85
2021/12/17 06:27:19;;;;;;;0.60;0.60;;;7.30;99.90;;;;;;5063262;28;20051;-85
2021/12/17 06:29:46;;;;;;;0.60;0.60;;;7.30;99.90;;;;;;5046508;28;20100;-84
2021/12/17 06:32:12;;;;;;;1.02;0.90;;;7.30;99.90;;;;;;5045467;28;20054;-84
2021/12/17 06:34:39;;;;;;;0.68;0.68;;;7.30;99.90;;;;;;5062546;28;20036;-84
2021/12/17 06:37:05;;;;;;;0.60;0.60;;;7.30;99.90;;;;;;5061497;28;20138;-84
2021/12/17 06:39:31;;;;;;;0.50;0.50;;;7.30;99.90;;;;;;5080830;28;20128;-85
2021/12/17 06:41:57;;;;;;;0.77;0.77;;;7.20;99.90;;;;;;5062749;28;20041;-85
2021/12/17 06:44:25;;;;;;;0.73;0.73;;;7.20;99.90;;;;;;5037201;28;20148;-84
2021/12/17 06:54:42;;;;;;;0.88;0.88;;;7.10;99.90;;;;;;5059972;28;20135;-85
2021/12/17 06:58:01;;;;;;;0.88;0.75;;;7.10;99.90;;;;;;5041909;28;20033;-84
2021/12/17 07:10:52;;;;;;;0.60;0.60;;;7.10;99.90;;;;;;5058050;28;20068;-83
2021/12/17 07:20:02;;;;;;;0.70;0.70;;;7.10;99.90;;;;;;5058234;28;20124;-84
2021/12/17 07:22:16;;;;;;;0.60;0.60;;;7.10;99.90;;;;;;5055756;28;20048;-84
2021/12/17 07:24:50;;;;;;;0.60;0.60;;;7.10;99.90;;;;;;5044933;28;20048;-84
2021/12/17 07:32:50;;;;;;;0.70;0.70;;;7.20;99.90;;;;;;5057105;28;19947;-83
2021/12/17 07:40:32;;;;;;;0.85;0.85;;;7.10;99.90;;;;;;5057704;28;20087;-83
2021/12/17 07:43:01;;;;;;;0.60;0.60;;;7.10;99.90;;;;;;5059307;28;20037;-83
2021/12/17 07:45:27;;;;;;;0.60;0.60;;;7.10;99.90;;;;;;5057513;28;20063;-83
2021/12/17 07:47:53;;;;;;;0.60;0.60;;;7.10;99.90;;;;;;5056410;28;20068;-83
2021/12/17 07:50:18;;;;;;;0.70;0.70;;;7.10;99.90;;;;;;5060459;28;20047;-83
2021/12/17 07:52:44;;;;;;;0.50;0.50;;;7.10;99.90;;;;;;5053945;28;20130;-83
2021/12/17 07:55:10;;;;;;;0.70;0.70;;;7.10;99.90;;;;;;5061643;28;20123;-83
2021/12/17 07:57:35;;;;;;;0.77;0.77;;;7.10;99.90;;;;;;5077421;28;20047;-84
2021/12/17 08:00:01;;;;;;;0.60;0.60;;;7.10;99.90;;;;;;5056202;28;20108;-83
2021/12/17 08:02:27;;;;;;;0.60;0.60;;;7.10;99.90;;;;;;5058871;28;20098;-84
2021/12/17 08:04:52;;;;;;;0.60;0.60;;;7.20;99.90;;;;;;5058279;28;20131;-84
2021/12/17 08:07:18;;;;;;;0.70;0.70;;;7.20;99.90;;;;;;5060743;28;20040;-83
2021/12/17 08:09:44;;;;;;;0.63;0.63;;;7.20;99.90;;;;;;5057524;28;20051;-84
2021/12/17 08:12:10;;;;;;;1.40;1.20;;;7.20;99.90;;;;;;5058287;28;20086;-84
2021/12/17 08:14:36;;;;;;;0.60;0.60;;;7.20;99.90;;;;;;5042088;28;20046;-86
2021/12/17 08:25:09;;;;;;;0.70;0.70;;;7.30;99.90;;;;;;5064150;28;20461;-84
2021/12/17 08:30:21;;;;;;;0.75;0.75;;;7.30;99.90;;;;;;5055783;28;20048;-86
2021/12/17 08:32:47;;;;;;;0.50;0.50;;;7.30;99.90;;;;;;5073974;28;20059;-86
2021/12/17 08:35:14;;;;;;;0.57;0.57;;;7.40;99.90;;;;;;5064311;28;20447;-85
2021/12/17 08:37:39;;;;;;;0.70;0.70;;;7.40;99.90;;;;;;5062628;28;20036;-86
2021/12/17 08:40:08;;;;;;;0.60;0.60;;;7.40;99.90;;;;;;5059875;28;20143;-84
2021/12/17 08:42:34;;;;;;;1.48;1.02;;;7.40;99.90;;;;;;5055391;28;20053;-84
2021/12/17 08:45:00;;;;;;;0.60;0.60;;;7.50;99.90;;;;;;5062260;28;20045;-85
2021/12/17 08:47:26;;;;;;;0.80;0.80;;;7.50;99.90;;;;;;5064103;28;20047;-84
2021/12/17 08:49:53;;;;;;;0.60;0.60;;;7.50;99.90;;;;;;5060321;28;20067;-83
2021/12/17 08:52:19;;;;;;;0.60;0.60;;;7.50;99.90;;;;;;5045879;28;20047;-85
2021/12/17 08:54:44;;;;;;;0.60;0.60;;;7.60;99.90;;;;;;5049966;28;20064;-85
2021/12/17 08:57:10;;;;;;;0.55;0.55;;;7.60;99.90;;;;;;5047386;28;20090;-85
2021/12/17 08:59:37;;;;;;;0.60;0.60;;;7.60;99.90;;;;;;5052115;28;20045;-86
2021/12/17 09:02:04;;;;;;;0.60;0.60;;;7.70;99.90;;;;;;5047042;28;20105;-86
2021/12/17 09:04:30;;;;;;;0.60;0.60;;;7.70;99.90;;;;;;5056327;28;20045;-85
2021/12/17 09:06:56;;;;;;;1.55;1.45;;;7.70;99.90;;;;;;5082074;28;20100;-86
2021/12/17 09:09:23;;;;;;;0.60;0.60;;;7.70;99.90;;;;;;5075141;28;20048;-84
2021/12/17 09:11:50;;;;;;;0.75;0.75;;;7.80;99.90;;;;;;5047420;28;20052;-84
2021/12/17 09:14:19;;;;;;;0.55;0.55;;;7.80;99.90;;;;;;5060798;28;20032;-84
2021/12/17 09:16:46;;;;;;;0.82;0.82;;;7.80;99.90;;;;;;5044598;28;20051;-85
2021/12/17 09:19:12;;;;;;;0.60;0.60;;;7.80;99.90;;;;;;5063562;28;20036;-87
2021/12/17 09:21:38;;;;;;;2.40;0.70;;;7.90;99.90;;;;;;5058970;28;20063;-87
2021/12/17 09:24:04;;;;;;;0.60;0.60;;;7.90;99.90;;;;;;5061318;28;20048;-86
2021/12/17 09:26:32;;;;;;;1.02;1.02;;;7.90;99.90;;;;;;5072976;28;20048;-85
2021/12/17 09:28:57;;;;;;;0.75;0.75;;;7.90;99.90;;;;;;5062402;28;20110;-85
2021/12/17 09:31:23;;;;;;;0.50;0.50;;;8.00;99.90;;;;;;5045390;28;20067;-86
2021/12/17 09:33:51;;;;;;;0.60;0.60;;;8.00;99.90;;;;;;5039960;28;20775;-85
2021/12/17 09:36:18;;;;;;;0.50;0.50;;;8.00;99.90;;;;;;5047246;28;20090;-85
2021/12/17 09:38:49;;;;;;;0.70;0.70;;;8.00;99.90;;;;;;5063451;28;20063;-85
2021/12/17 09:41:16;;;;;;;0.52;0.52;;;8.10;99.90;;;;;;5052345;28;20145;-85
2021/12/17 09:43:41;;;;;;;1.15;1.15;;;8.10;99.90;;;;;;5043038;28;20052;-85
2021/12/17 09:46:07;;;;;;;0.50;0.50;;;8.10;99.90;;;;;;5043074;28;20049;-85
2021/12/17 09:48:34;;;;;;;1.25;1.15;;;8.20;99.90;;;;;;5060407;28;20036;-85
2021/12/17 09:51:03;;;;;;;0.60;0.60;;;8.20;99.90;;;;;;5058356;28;20094;-86
2021/12/17 09:53:28;;;;;;;0.80;0.73;;;8.20;99.90;;;;;;5058942;28;20048;-85
2021/12/17 09:55:54;;;;;;;0.50;0.50;;;8.20;99.90;;;;;;5062037;28;20120;-85
2021/12/17 09:58:20;;;;;;;0.65;0.65;;;8.30;99.90;;;;;;5080361;28;20404;-86
2021/12/17 10:00:46;;;;;;;0.70;0.70;;;8.30;99.90;;;;;;5043209;28;20037;-85
2021/12/17 10:03:11;;;;;;;0.57;0.57;;;8.30;99.90;;;;;;5062399;28;20145;-84
2021/12/17 10:05:39;;;;;;;0.70;0.70;;;8.40;99.90;;;;;;5040851;28;20037;-85
2021/12/17 10:08:17;;;;;;;1.40;0.93;;;8.40;99.90;;;;;;5063739;28;20041;-85
2021/12/17 10:10:55;;;;;;;0.60;0.60;;;8.40;99.90;;;;;;5058272;28;20041;-84
2021/12/17 10:13:23;;;;;;;0.75;0.75;;;8.40;99.90;;;;;;5079070;28;20051;-85
2021/12/17 10:15:52;;;;;;;0.57;0.57;;;8.40;99.90;;;;;;5044158;28;20048;-85
2021/12/17 10:18:18;;;;;;;0.70;0.70;;;8.50;99.90;;;;;;5046186;28;20036;-85
2021/12/17 10:20:56;;;;;;;0.55;0.55;;;8.50;99.90;;;;;;5057736;28;20041;-86
2021/12/17 10:23:24;;;;;;;0.95;0.80;;;8.50;99.90;;;;;;5061100;28;20524;-85
2021/12/17 10:25:50;;;;;;;0.68;0.68;;;8.40;99.90;;;;;;5043506;28;20048;-85
2021/12/17 10:28:16;;;;;;;0.65;0.65;;;8.50;99.90;;;;;;5046966;28;20499;-86
2021/12/17 10:30:45;;;;;;;0.65;0.65;;;8.50;99.90;;;;;;5061098;28;20047;-84
2021/12/17 10:33:20;;;;;;;1.02;1.00;;;8.50;99.90;;;;;;5058992;28;20045;-85
2021/12/17 10:35:49;;;;;;;0.57;0.57;;;8.50;99.90;;;;;;5060560;28;20432;-86
2021/12/17 10:38:17;;;;;;;0.60;0.60;;;8.60;99.90;;;;;;5037394;28;20047;-85
2021/12/17 10:40:51;;;;;;;0.60;0.60;;;8.60;99.90;;;;;;5061051;28;20071;-86
2021/12/17 10:43:24;;;;;;;0.70;0.70;;;8.60;99.90;;;;;;5060499;28;21533;-84
2021/12/17 10:46:07;;;;;;;0.95;0.95;;;8.60;99.90;;;;;;5078571;28;20059;-84
2021/12/17 10:51:47;;;;;;;0.50;0.50;;;8.60;99.90;;;;;;5061181;28;20049;-84
2021/12/17 10:54:15;;;;;;;0.60;0.60;;;8.70;99.90;;;;;;5060796;28;20052;-86
2021/12/17 10:56:45;;;;;;;0.50;0.50;;;8.70;99.90;;;;;;5061496;28;20079;-85
2021/12/17 10:59:17;;;;;;;0.50;0.50;;;8.70;99.90;;;;;;5061420;28;20033;-84
2021/12/17 11:01:45;;;;;;;0.50;0.50;;;8.70;99.90;;;;;;5044027;28;20059;-81
2021/12/17 11:04:12;;;;;;;0.50;0.50;;;8.70;99.90;;;;;;5045192;28;20024;-82
2021/12/17 11:06:52;;;;;;;0.77;0.77;;;8.70;99.90;;;;;;5061402;28;20496;-84
2021/12/17 11:09:41;;;;;;;0.50;0.50;;;8.80;99.90;;;;;;5045489;28;20059;-84
2021/12/17 11:12:17;;;;;;;0.70;0.70;;;8.80;99.90;;;;;;5059101;28;20041;-84
2021/12/17 11:14:44;;;;;;;0.70;0.70;;;8.80;99.90;;;;;;5062623;28;20049;-84
2021/12/17 11:17:12;;;;;;;0.50;0.50;;;8.80;99.90;;;;;;5061276;28;20056;-83
2021/12/17 11:19:38;;;;;;;0.50;0.50;;;8.80;99.90;;;;;;5063037;28;20595;-85
2021/12/17 11:22:04;;;;;;;0.50;0.50;;;8.80;99.90;;;;;;5045244;28;20040;-83
2021/12/17 11:24:32;;;;;;;0.95;0.90;;;8.90;99.90;;;;;;5051815;28;20040;-82
2021/12/17 11:26:59;;;;;;;0.73;0.73;;;8.90;99.90;;;;;;5057306;28;20092;-83
2021/12/17 11:29:26;;;;;;;0.50;0.50;;;8.90;99.90;;;;;;5058515;28;20045;-82
2021/12/17 11:31:51;;;;;;;0.60;0.60;;;8.90;99.90;;;;;;5060677;28;20051;-84
2021/12/17 11:34:18;;;;;;;0.70;0.70;;;9.00;99.90;;;;;;5060518;28;20667;-84
2021/12/17 11:36:45;;;;;;;0.50;0.50;;;9.00;99.90;;;;;;5055793;28;20051;-84
2021/12/17 11:39:21;;;;;;;0.60;0.60;;;9.00;99.90;;;;;;5077703;28;20059;-83
2021/12/17 11:42:29;;;;;;;0.60;0.60;;;9.00;99.90;;;;;;5078601;28;20037;-83
2021/12/17 11:47:45;;;;;;;0.60;0.60;;;9.00;99.90;;;;;;5057751;28;20092;-82
2021/12/17 11:50:16;;;;;;;0.50;0.50;;;9.00;99.90;;;;;;5083688;28;20041;-87
2021/12/17 11:52:53;;;;;;;0.50;0.50;;;9.10;99.90;;;;;;5064226;28;20104;-86
2021/12/17 11:55:36;;;;;;;0.80;0.80;;;9.10;99.90;;;;;;5064630;28;20117;-83
2021/12/17 11:58:10;;;;;;;0.75;0.75;;;9.10;99.90;;;;;;5075911;28;20420;-85
2021/12/17 12:00:41;;;;;;;0.60;0.60;;;9.10;99.90;;;;;;5048405;28;20047;-85
2021/12/17 12:03:22;;;;;;;0.50;0.50;;;9.10;99.90;;;;;;5062675;28;20033;-84
2021/12/17 12:05:53;;;;;;;0.60;0.60;;;9.10;99.90;;;;;;5058740;28;20041;-84
2021/12/17 12:08:39;;;;;;;0.75;0.75;;;9.00;99.90;;;;;;5065702;28;20052;-84
2021/12/17 12:11:08;;;;;;;0.60;0.60;;;9.00;99.90;;;;;;5039231;28;20048;-85
2021/12/17 12:13:48;;;;;;;0.60;0.60;;;9.00;99.90;;;;;;5057431;28;20041;-84
2021/12/17 12:16:26;;;;;;;0.60;0.60;;;9.00;99.90;;;;;;5058302;28;20073;-84
2021/12/17 12:18:53;;;;;;;0.50;0.50;;;9.00;99.90;;;;;;5060236;28;20040;-84
2021/12/17 12:21:21;;;;;;;0.60;0.60;;;9.00;99.90;;;;;;5060070;28;20049;-85
2021/12/17 12:24:14;;;;;;;0.50;0.50;;;9.00;99.90;;;;;;5063302;28;20693;-85
2021/12/17 12:26:50;;;;;;;0.70;0.70;;;9.00;99.90;;;;;;5063746;28;20063;-84
2021/12/17 12:29:21;;;;;;;0.60;0.60;;;9.00;99.90;;;;;;5048250;28;20048;-85
2021/12/17 12:31:50;;;;;;;0.73;0.63;;;9.00;99.90;;;;;;5061469;28;20045;-85
2021/12/17 12:34:20;;;;;;;0.60;0.60;;;9.00;99.90;;;;;;5065107;28;20068;-85
2021/12/17 12:36:58;;;;;;;0.52;0.52;;;9.00;99.90;;;;;;5063995;28;20048;-86
2021/12/17 12:39:38;;;;;;;0.50;0.50;;;8.90;99.90;;;;;;5064995;28;20045;-86
2021/12/17 12:42:04;;;;;;;0.60;0.60;;;9.00;99.90;;;;;;5063805;28;20048;-86
2021/12/17 12:44:42;;;;;;;1.23;0.70;;;9.00;99.90;;;;;;5065349;28;20045;-86
2021/12/17 12:47:12;;;;;;;0.60;0.60;;;9.00;99.90;;;;;;5060148;28;20062;-84
2021/12/17 12:50:02;;;;;;;0.60;0.60;;;9.00;99.90;;;;;;5064864;28;20484;-85
2021/12/17 12:52:31;;;;;;;1.30;1.00;;;8.90;99.90;;;;;;5061414;28;20051;-84
2021/12/17 12:55:07;;;;;;;0.50;0.50;;;9.00;99.90;;;;;;5046850;28;20156;-86
2021/12/17 12:57:35;;;;;;;0.60;0.60;;;8.90;99.90;;;;;;5062690;28;20036;-86
2021/12/17 13:00:22;;;;;;;0.60;0.60;;;8.90;99.90;;;;;;5075056;28;20047;-86
2021/12/17 13:02:57;;;;;;;0.60;0.60;;;9.00;99.90;;;;;;5063769;28;20116;-85
2021/12/17 13:05:24;;;;;;;0.57;0.57;;;9.00;99.90;;;;;;5045436;28;20199;-85
2021/12/17 13:07:54;;;;;;;0.50;0.50;;;9.00;99.90;;;;;;5046016;28;20051;-84
2021/12/17 13:10:23;;;;;;;0.80;0.80;;;9.00;99.90;;;;;;5062974;28;20044;-86
2021/12/17 13:13:16;;;;;;;0.65;0.65;;;9.00;99.90;;;;;;5033478;28;20116;-84
2021/12/17 13:15:49;;;;;;;0.70;0.70;;;9.00;99.90;;;;;;5056672;28;20059;-85
2021/12/17 13:23:20;;;;;;;0.60;0.60;;;9.00;99.90;;;;;;5063790;28;20113;-86
2021/12/17 13:25:45;;;;;;;0.50;0.50;;;9.00;99.90;;;;;;5060033;28;20047;-89
2021/12/17 13:28:13;;;;;;;0.52;0.52;;;9.00;99.90;;;;;;5063000;28;20045;-87
2021/12/17 13:30:38;;;;;;;0.50;0.50;;;9.00;99.90;;;;;;5033171;28;20063;-85
2021/12/17 13:33:04;;;;;;;0.60;0.60;;;9.00;99.90;;;;;;5060525;28;20052;-86
2021/12/17 13:35:34;;;;;;;0.50;0.50;;;9.00;99.90;;;;;;5040467;28;20111;-86
2021/12/17 13:38:01;;;;;;;0.50;0.50;;;8.90;99.90;;;;;;5046572;28;20195;-87
2021/12/17 13:40:28;;;;;;;1.25;0.93;;;8.90;99.90;;;;;;5044904;28;20044;-88
2021/12/17 13:42:55;;;;;;;0.60;0.60;;;8.90;99.90;;;;;;5049606;28;20041;-87
2021/12/17 13:45:22;;;;;;;0.70;0.70;;;8.90;99.90;;;;;;5061300;28;20101;-86
2021/12/17 13:47:54;;;;;;;0.50;0.50;;;8.90;99.90;;;;;;5062276;28;20074;-85
2021/12/17 13:50:31;;;;;;;0.60;0.60;;;8.90;99.90;;;;;;5059700;28;20048;-86
2021/12/17 13:53:10;;;;;;;0.60;0.60;;;8.90;99.90;;;;;;5046812;28;20068;-86
2021/12/17 13:55:45;;;;;;;0.60;0.60;;;8.90;99.90;;;;;;5057843;28;20036;-85
2021/12/17 13:58:14;;;;;;;0.50;0.50;;;8.90;99.90;;;;;;5038836;28;20114;-85
2021/12/17 14:00:46;;;;;;;0.73;0.73;;;8.90;99.90;;;;;;5036317;28;20109;-86
2021/12/17 14:03:14;;;;;;;0.57;0.57;;;8.90;99.90;;;;;;5042110;28;20044;-86
2021/12/17 14:06:01;;;;;;;0.50;0.50;;;8.90;99.90;;;;;;5042942;28;20054;-86
2021/12/17 14:08:26;;;;;;;0.70;0.70;;;8.90;99.90;;;;;;5062697;28;20075;-86
2021/12/17 14:10:56;;;;;;;0.60;0.60;;;8.90;99.90;;;;;;5063431;28;20049;-85
2021/12/17 14:13:23;;;;;;;0.60;0.60;;;8.90;99.90;;;;;;5048582;28;20040;-85
2021/12/17 14:15:51;;;;;;;0.60;0.60;;;8.90;99.90;;;;;;5044650;28;20562;-85
2021/12/17 14:18:22;;;;;;;0.50;0.50;;;8.90;99.90;;;;;;5053412;28;20045;-85
2021/12/17 14:20:56;;;;;;;0.50;0.50;;;8.90;99.90;;;;;;5071105;28;20044;-86
2021/12/17 14:23:24;;;;;;;0.60;0.60;;;8.90;99.90;;;;;;5061957;28;20036;-86
2021/12/17 14:25:53;;;;;;;0.52;0.52;;;8.90;99.90;;;;;;5040645;28;20113;-87
2021/12/17 14:28:25;;;;;;;0.50;0.50;;;8.90;99.90;;;;;;5045103;28;20056;-86
2021/12/17 14:31:01;;;;;;;0.50;0.50;;;8.90;99.90;;;;;;5045160;28;20044;-87
2021/12/17 14:33:36;;;;;;;0.60;0.60;;;8.90;99.90;;;;;;5063187;28;20127;-86
2021/12/17 14:36:12;;;;;;;0.50;0.50;;;8.90;99.90;;;;;;5058590;28;20049;-85
2021/12/17 14:38:44;;;;;;;0.50;0.50;;;8.90;99.90;;;;;;5042730;28;20083;-86
2021/12/17 14:41:25;;;;;;;0.50;0.50;;;8.90;99.90;;;;;;5035641;28;20068;-85
2021/12/17 14:44:22;;;;;;;0.60;0.60;;;8.90;99.90;;;;;;5060820;28;20072;-88
2021/12/17 14:46:50;;;;;;;0.73;0.68;;;8.90;99.90;;;;;;5055164;28;20048;-88
2021/12/17 14:57:12;;;;;;;0.50;0.50;;;8.90;99.90;;;;;;5060093;28;20055;-87
2021/12/17 15:00:28;;;;;;;0.50;0.50;;;8.90;99.90;;;;;;5067750;28;20170;-88
2021/12/17 15:03:00;;;;;;;0.50;0.50;;;8.80;99.90;;;;;;5060783;28;20091;-85
2021/12/17 15:05:29;;;;;;;0.50;0.50;;;8.80;99.90;;;;;;5058636;28;20067;-84
2021/12/17 15:07:57;;;;;;;0.50;0.50;;;8.80;99.90;;;;;;5060330;28;20055;-84
2021/12/17 15:10:24;;;;;;;0.60;0.60;;;8.80;99.90;;;;;;5060779;28;20041;-85
2021/12/17 15:12:55;;;;;;;0.60;0.60;;;8.80;99.90;;;;;;5043110;28;20185;-84
2021/12/17 15:15:22;;;;;;;0.50;0.50;;;8.80;99.90;;;;;;5045196;28;20106;-85
2021/12/17 15:17:50;;;;;;;0.70;0.70;;;8.60;99.90;;;;;;5031193;28;20097;-84
2021/12/17 15:20:25;;;;;;;0.60;0.60;;;8.80;99.90;;;;;;5065073;28;20040;-84
2021/12/17 15:22:52;;;;;;;0.50;0.50;;;8.80;99.90;;;;;;5064005;28;20043;-86
2021/12/17 15:25:19;;;;;;;0.60;0.60;;;8.80;99.90;;;;;;5048603;28;20071;-85
2021/12/17 15:27:44;;;;;;;0.50;0.50;;;8.80;99.90;;;;;;5048089;28;20039;-86
2021/12/17 15:30:17;;;;;;;0.60;0.60;;;8.70;99.90;;;;;;5066516;28;20040;-85
2021/12/17 15:32:43;;;;;;;0.60;0.60;;;8.80;99.90;;;;;;5063563;28;20044;-86
2021/12/17 15:35:11;;;;;;;0.50;0.50;;;8.70;99.90;;;;;;5059693;28;20353;-86
2021/12/17 15:37:38;;;;;;;0.52;0.52;;;8.70;99.90;;;;;;5069853;28;20052;-87
2021/12/17 15:40:05;;;;;;;0.63;0.63;;;8.70;99.90;;;;;;5051648;28;20041;-88
2021/12/17 15:42:31;;;;;;;0.50;0.50;;;8.70;99.90;;;;;;5049638;28;20032;-86
2021/12/17 15:44:57;;;;;;;0.65;0.65;;;8.70;99.90;;;;;;5047215;28;20040;-86
2021/12/17 15:47:22;;;;;;;0.50;0.50;;;8.70;99.90;;;;;;5064393;28;20048;-88
2021/12/17 15:49:48;;;;;;;0.55;0.55;;;8.70;99.90;;;;;;5048198;28;20029;-87
2021/12/17 15:52:14;;;;;;;0.68;0.68;;;8.70;99.90;;;;;;5065053;28;20059;-86
2021/12/17 15:54:40;;;;;;;0.60;0.60;;;8.70;99.90;;;;;;5048158;28;20040;-87
2021/12/17 15:57:07;;;;;;;0.63;0.63;;;8.70;99.90;;;;;;5048117;28;20036;-86
2021/12/17 15:59:33;;;;;;;0.50;0.50;;;8.70;99.90;;;;;;5062521;28;20036;-87